Flight Track Log - Related Links

Times and Time Zones

All times are in EDT time to prevent confusion due to time zone crossing. See the VH-LHH flight status page for this flight to view local times or setup timezone preferences in your user account.

Time Position Orientation Groundspeed Altitude Reporting Facility
EDT Latitude Longitude Course Direction KTS MPH feet Rate Location/Type
Fri 08:06:52 PM -10.7992 126.0511 360° North 5,000  Level Aus ATC (Calculated)
Fri 08:07:42 PM -10.7992 126.0511 174° South 5,000  Level Aus ATC (Calculated)
Fri 08:09:00 PM -10.8181 126.0530 174° South  Level FlightAware Approximate
Fri 08:10:00 PM -10.8326 126.0545 174° South  Level FlightAware Approximate
Fri 08:10:42 PM -10.9060 126.0619 354° North 5,000  Level Aus ATC (Calculated)
Fri 08:11:00 PM -10.8471 126.0559 174° South  Level FlightAware Approximate
Fri 08:12:00 PM -10.9249 126.0638 174° South  Level FlightAware Approximate
Fri 08:13:00 PM -10.9394 126.0652 174° South  Level FlightAware Approximate
Fri 08:14:00 PM -10.9539 126.0667 174° South  Level FlightAware Approximate
Fri 08:14:18 PM -11.0061 126.0720 354° North 5,000  Level Aus ATC (Calculated)
Fri 08:15:00 PM -10.9684 126.0682 174° South  Level FlightAware Approximate
Fri 08:16:00 PM -11.0308 126.0745 174° South  Level FlightAware Approximate
Fri 08:17:00 PM -11.0453 126.0759 174° South  Level FlightAware Approximate
Fri 08:17:01 PM -11.0999 126.0814 174° South 5,000  Level Aus ATC (Calculated)
Fri 08:19:00 PM -11.1287 126.0843 174° South  Level FlightAware Approximate
Fri 08:20:00 PM -11.1432 126.0858 174° South  Level FlightAware Approximate
Fri 08:21:00 PM -11.1578 126.0873 174° South  Level FlightAware Approximate
Fri 08:22:00 PM -11.1723 126.0888 174° South  Level FlightAware Approximate
Fri 08:23:00 PM -11.1868 126.0902 174° South  Level FlightAware Approximate
Fri 08:24:00 PM -11.2013 126.0917 174° South  Level FlightAware Approximate
Fri 08:24:47 PM -11.3638 126.1081 354° North 5,000  Level Aus ATC (Calculated)
Fri 08:25:00 PM -11.2158 126.0932 174° South  Level FlightAware Approximate
Fri 08:26:00 PM -11.3815 126.1099 174° South  Level FlightAware Approximate
Fri 08:27:00 PM -11.3960 126.1114 174° South  Level FlightAware Approximate
Fri 08:28:00 PM -11.4106 126.1128 174° South  Level FlightAware Approximate
Fri 08:29:00 PM -11.4251 126.1143 174° South  Level FlightAware Approximate
Fri 08:30:00 PM -11.4396 126.1158 174° South  Level FlightAware Approximate
Fri 08:31:00 PM -11.4541 126.1172 174° South  Level FlightAware Approximate
Fri 08:32:00 PM -11.4686 126.1187 174° South  Level FlightAware Approximate
Fri 08:33:00 PM -11.4831 126.1202 174° South  Level FlightAware Approximate
Fri 08:34:00 PM -11.4977 126.1216 174° South  Level FlightAware Approximate
Fri 08:35:00 PM -11.5122 126.1231 174° South  Level FlightAware Approximate
Fri 08:36:00 PM -11.5267 126.1246 174° South  Level FlightAware Approximate
Fri 08:37:00 PM -11.5412 126.1261 174° South  Level FlightAware Approximate
Fri 08:38:00 PM -11.5557 126.1275 174° South  Level FlightAware Approximate
Fri 08:39:00 PM -11.5703 126.1290 174° South  Level FlightAware Approximate
Fri 08:40:00 PM -11.5848 126.1305 174° South  Level FlightAware Approximate
Fri 08:41:00 PM -11.5993 126.1319 174° South  Level FlightAware Approximate
Fri 08:42:00 PM -11.6138 126.1334 174° South  Level FlightAware Approximate
Fri 08:43:00 PM -11.6284 126.1349 174° South  Level FlightAware Approximate
Fri 08:44:00 PM -11.6429 126.1363 174° South  Level FlightAware Approximate
Fri 08:45:00 PM -11.6574 126.1378 174° South  Level FlightAware Approximate
Fri 08:46:00 PM -11.6719 126.1393 174° South  Level FlightAware Approximate
Fri 08:47:00 PM -11.6864 126.1407 174° South  Level FlightAware Approximate
Fri 08:48:00 PM -11.7009 126.1422 174° South  Level FlightAware Approximate
Fri 08:49:00 PM -11.7155 126.1437 174° South  Level FlightAware Approximate
Fri 08:50:00 PM -11.7300 126.1452 174° South  Level FlightAware Approximate
Fri 08:51:00 PM -11.7445 126.1466 174° South  Level FlightAware Approximate
Fri 08:52:00 PM -11.7590 126.1481 174° South  Level FlightAware Approximate
Fri 08:53:00 PM -11.7736 126.1496 174° South  Level FlightAware Approximate
Fri 08:54:00 PM -11.7881 126.1510 174° South  Level FlightAware Approximate
Fri 08:54:13 PM -12.2930 126.2024 174° South 5,000  Level Aus ATC (Calculated)
Fri 08:56:00 PM -12.3189 126.2050 174° South  Level FlightAware Approximate
Fri 08:57:00 PM -12.3334 126.2065 174° South  Level FlightAware Approximate
Fri 08:58:00 PM -12.3479 126.2079 174° South  Level FlightAware Approximate
Fri 08:58:13 PM -12.4002 126.2133 174° South 5,000  Level Aus ATC (Calculated)
Fri 08:59:18 PM -12.4538 126.2187 174° South 5,000  Level Aus ATC (Calculated)
Fri 09:01:00 PM -12.4784 126.2213 174° South  Level FlightAware Approximate
Fri 09:02:00 PM -12.4930 126.2227 174° South  Level FlightAware Approximate
Fri 09:02:00 PM -12.5074 126.2242 174° South  Level Aus ATC (Calculated)
Fri 09:03:00 PM -12.5219 126.2257 174° South  Level FlightAware Approximate
Fri 09:03:37 PM -12.6063 126.2343 174° South 500  Level Aus ATC (Calculated)
Fri 09:05:00 PM -12.6267 126.2364 174° South  Level FlightAware Approximate
Fri 09:06:00 PM -12.6415 126.2379 174° South  Level FlightAware Approximate
Fri 09:07:00 PM -12.6563 126.2394 174° South  Level FlightAware Approximate
Fri 09:08:00 PM -12.6711 126.2409 174° South  Level FlightAware Approximate
Fri 09:09:00 PM -12.6859 126.2424 174° South  Level FlightAware Approximate
Fri 09:10:00 PM -12.7007 126.2439 174° South  Level FlightAware Approximate
Fri 09:11:00 PM -12.7155 126.2454 174° South  Level FlightAware Approximate
Fri 09:12:00 PM -12.7303 126.2469 174° South  Level FlightAware Approximate
Fri 09:13:00 PM -12.7451 126.2485 174° South  Level FlightAware Approximate
Fri 09:14:00 PM -12.7598 126.2500 174° South  Level FlightAware Approximate
Fri 09:15:00 PM -12.7746 126.2515 174° South  Level FlightAware Approximate
Fri 09:16:00 PM -12.7894 126.2530 174° South  Level FlightAware Approximate
Fri 09:17:00 PM -12.8042 126.2545 174° South  Level FlightAware Approximate
Fri 09:18:00 PM -12.8190 126.2560 174° South  Level FlightAware Approximate
Fri 09:19:00 PM -12.8338 126.2575 174° South  Level FlightAware Approximate
Fri 09:20:00 PM -12.8486 126.2590 174° South  Level FlightAware Approximate
Fri 09:21:00 PM -12.8634 126.2605 174° South  Level FlightAware Approximate
Fri 09:22:00 PM -12.8782 126.2620 174° South  Level FlightAware Approximate
Fri 09:23:00 PM -12.8930 126.2635 174° South  Level FlightAware Approximate
Fri 09:24:00 PM -12.9077 126.2651 174° South  Level FlightAware Approximate
Fri 09:25:00 PM -12.9225 126.2666 174° South  Level FlightAware Approximate
Fri 09:26:00 PM -12.9373 126.2681 174° South  Level FlightAware Approximate
Fri 09:27:00 PM -12.9521 126.2696 174° South  Level FlightAware Approximate
Fri 09:28:00 PM -12.9669 126.2711 174° South  Level FlightAware Approximate
Fri 09:29:00 PM -12.9817 126.2726 174° South  Level FlightAware Approximate
Fri 09:30:00 PM -12.9965 126.2741 174° South  Level FlightAware Approximate
Fri 09:31:00 PM -13.0113 126.2756 174° South  Level FlightAware Approximate
Fri 09:32:00 PM -13.0261 126.2771 174° South  Level FlightAware Approximate
Fri 09:33:00 PM -13.0408 126.2787 174° South  Level FlightAware Approximate
Fri 09:33:55 PM -13.5953 126.3316 355° North  Level Aus ATC (Calculated)
Fri 09:34:00 PM -13.0556 126.2802 174° South  Level FlightAware Approximate
Fri 09:35:00 PM -13.6113 126.3334 174° South  Level FlightAware Approximate
Fri 09:36:00 PM -13.6260 126.3350 174° South  Level FlightAware Approximate
Fri 09:37:00 PM -13.6408 126.3366 174° South  Level FlightAware Approximate
Fri 09:38:00 PM -13.6556 126.3383 174° South  Level FlightAware Approximate
Fri 09:39:00 PM -13.6704 126.3399 174° South  Level FlightAware Approximate
Fri 09:40:00 PM -13.6852 126.3416 174° South  Level FlightAware Approximate
Fri 09:41:00 PM -13.6999 126.3432 174° South  Level FlightAware Approximate
Fri 09:42:00 PM -13.7147 126.3448 174° South  Level FlightAware Approximate
Fri 09:43:00 PM -13.7295 126.3465 174° South  Level FlightAware Approximate
Fri 09:44:00 PM -13.7443 126.3481 174° South  Level FlightAware Approximate
Fri 09:45:00 PM -13.7591 126.3497 174° South  Level FlightAware Approximate
Fri 09:46:00 PM -13.7738 126.3514 174° South  Level FlightAware Approximate
Fri 09:47:00 PM -13.7886 126.3530 174° South  Level FlightAware Approximate
Fri 09:48:00 PM -13.8034 126.3547 174° South  Level FlightAware Approximate
Fri 09:48:00 PM -13.9908 126.3764 174° South 500  Level Aus ATC (Calculated)
Fri 09:49:00 PM -14.0056 126.3779 174° South  Level FlightAware Approximate

Login

Don't have an account? Register now (free) for customized features, flight alerts, and more!